Latest Coastal Weather Observations for Learmonth

IDW60701

Issued at 8:15 am WST Thursday 2 October 2014 (issued every 10 minutes, with the page automatically refreshed every 10 minutes)

About coastal observations | Map of coastal stations | Coastal observations for WA | Marine services | Other Formats
Station Details ID: 005007 Name: LEARMONTH AIRPORT Lat: -22.24 Lon: 114.10 Height: 5.0 m
Data from the previous 72 hours. | See also: Recent months at Learmonth
Date/Time
WST
Temp

°C
Wind Pressure Rain
since 9am
mm
Weather Cloud Vis
km
Sea
Height
m
Swell
Dir
 
Speed
knots
Gust
knots
hPa Trend Height
m
Period
s
Dir
02/08:00am 20.4 S 15 19 1016.9 - 0.0 - Mostly clear 10 - - - -
02/07:30am 18.9 SSW 14 19 1016.7 - 0.0 - Mostly clear 10 - - - -
02/07:00am 17.3 SSW 12 16 1016.6 - 0.0 - Mostly clear 10 - - - -
02/06:30am 16.1 SSW 10 13 1016.1 - 0.0 - Mostly clear 10 - - - -
02/06:00am 15.4 SSW 7 10 1016.0 R 0.0 Smoke Clear 16 - - - -
02/05:30am 14.4 SW 7 9 1015.7 - 0.0 - - 10 - - - -
02/05:00am 14.1 SSW 5 6 1015.3 - 0.0 - - 10 - - - -
02/04:30am 13.9 SSW 8 9 1015.0 - 0.0 - - 10 - - - -
02/04:00am 14.7 SSW 8 10 1014.9 - 0.0 - - 10 - - - -
02/03:30am 15.0 SE 5 6 1014.7 - 0.0 - - 10 - - - -
02/03:00am 15.3 S 5 7 1014.4 - 0.0 - - 10 - - - -
02/02:30am 15.8 SSE 5 6 1014.7 - 0.0 - - 10 - - - -
02/02:00am 16.7 SSW 6 9 1014.8 - 0.0 - - 10 - - - -
02/01:30am 17.5 ESE 6 8 1014.9 - 0.0 - - 10 - - - -
02/01:00am 18.1 SW 9 11 1015.0 - 0.0 - - 10 - - - -
02/12:30am 18.5 SW 9 12 1015.1 - 0.0 - - 10 - - - -
02/12:00am 18.8 SW 11 13 1015.3 - 0.0 - - 10 - - - -
 
Date/Time
WST
Temp

°C
Wind Pressure Rain
since 9am
mm
Weather Cloud Vis
km
Sea
Height
m
Swell
Dir
 
Speed
knots
Gust
knots
hPa Trend Height
m
Period
s
Dir
01/11:30pm 17.4 SW 6 8 1015.7 - 0.0 - - 10 - - - -
01/11:00pm 17.5 SW 8 9 1015.9 - 0.0 - - 10 - - - -
01/10:30pm 18.0 SW 7 8 1016.3 - 0.0 - - 10 - - - -
01/10:00pm 18.3 SW 7 8 1016.5 - 0.0 - - 10 - - - -
01/09:30pm 18.5 SSW 6 7 1016.7 - 0.0 - - 10 - - - -
01/09:00pm 19.3 SSW 6 7 1016.4 - 0.0 - - 10 - - - -
01/08:30pm 20.3 S 7 9 1016.3 - 0.0 - - 10 - - - -
01/08:00pm 21.0 SSW 8 11 1016.1 - 0.0 - - 10 - - - -
01/07:30pm 21.5 SSW 10 13 1015.7 - 0.0 - - 10 - - - -
01/07:00pm 22.4 SSW 13 17 1015.3 - 0.0 - - 10 - - - -
01/06:30pm 23.1 SSW 11 15 1014.9 - 0.0 - - 10 - - - -
01/06:00pm 24.2 SSW 15 20 1014.3 - 0.0 - - 10 - - - -
01/05:30pm 25.7 SW 15 19 1014.1 - 0.0 - - 10 - - - -
01/05:00pm 25.8 WSW 15 21 1014.0 - 0.0 - - 10 - - - -
01/04:30pm 27.3 SW 12 17 1013.8 - 0.0 - - 10 - - - -
01/04:00pm 27.9 SW 12 18 1013.7 - 0.0 - - 10 - - - -
01/03:30pm 27.2 W 16 22 1013.7 - 0.0 - - 10 - - - -
01/03:00pm 28.1 W 13 21 1013.6 R 0.0 Fine Mostly clear 30 - - - -
01/02:30pm 28.8 WSW 14 19 1013.8 - 0.0 - - 10 - - - -
01/02:00pm 28.5 WNW 11 13 1013.9 - 0.0 - - 10 - - - -
01/01:30pm 29.2 W 12 14 1014.0 - 0.0 - - 10 - - - -
01/01:00pm 29.0 WSW 10 14 1014.4 - 0.0 - - 10 - - - -
01/12:30pm 28.6 SW 9 14 1014.7 - 0.0 - Mostly clear 10 - - - -
01/12:00pm 28.1 W 10 16 1014.9 R 0.0 Fine Mostly clear 30 - - - -
01/11:30am 28.3 W 10 14 1015.4 - 0.0 - Mostly clear 10 - - - -
01/11:00am 27.5 WSW 9 17 1015.8 - 0.0 - Mostly clear 10 - - - -
01/10:30am 27.1 WSW 11 16 1015.9 - 0.0 - Mostly clear 10 - - - -
01/10:00am 26.1 W 14 18 1015.8 - 0.0 - Mostly clear 10 - - - -
01/09:30am 25.7 W 17 23 1015.3 - 0.0 - Mostly clear 10 - - - -
01/09:00am 25.2 W 18 22 1015.0 F 0.0 Smoke Mostly clear 27 - - - -
01/08:30am 24.6 W 14 17 1015.3 - 0.0 - Mostly clear 10 - - - -
01/08:00am 23.4 WSW 8 12 1015.4 - 0.0 - Mostly clear 10 - - - -
01/07:30am 19.8 SSW 4 5 1015.4 - 0.0 - Mostly clear 10 - - - -
01/07:00am 16.9 S 4 5 1015.2 - 0.0 - Mostly clear 10 - - - -
01/06:30am 15.1 SSE 5 6 1015.0 - 0.0 - - 10 - - - -
01/06:00am 14.9 SSE 8 9 1014.6 R 0.0 Smoke Clear 25 - - - -
01/05:30am 15.2 SSW 4 5 1014.4 - 0.0 - - 10 - - - -
01/05:00am 17.3 W 6 7 1014.1 - 0.0 - - 10 - - - -
01/04:30am 17.5 W 7 8 1013.9 - 0.0 - - 10 - - - -
01/04:00am 17.3 W 5 7 1013.8 - 0.0 - - 10 - - - -
01/03:30am 16.8 WNW 3 5 1013.9 - 0.0 - - 10 - - - -
01/03:00am 17.4 WNW 3 5 1013.8 - 0.0 - - 10 - - - -
01/02:30am 18.0 W 3 5 1013.9 - 0.0 - - 10 - - - -
01/02:00am 18.1 W 5 6 1014.2 - 0.0 - - 10 - - - -
01/01:30am 17.8 W 5 6 1014.3 - 0.0 - - 10 - - - -
01/01:00am 18.2 W 7 8 1014.4 - 0.0 - - 10 - - - -
01/12:30am 18.2 WSW 6 7 1014.6 - 0.0 - - 10 - - - -
01/12:00am 18.8 SSW 4 5 1014.8 - 0.0 - - 10 - - - -
 
Date/Time
WST
Temp

°C
Wind Pressure Rain
since 9am
mm
Weather Cloud Vis
km
Sea
Height
m
Swell
Dir
 
Speed
knots
Gust
knots
hPa Trend Height
m
Period
s
Dir
30/11:30pm 18.9 SSW 5 6 1015.0 - 0.0 - - 10 - - - -
30/11:00pm 20.3 SW 5 7 1015.1 - 0.0 - - 10 - - - -
30/10:30pm 20.6 SW 9 11 1015.1 - 0.0 - - 10 - - - -
30/10:00pm 20.9 SW 10 12 1015.2 - 0.0 - - 10 - - - -
30/09:30pm 21.2 SW 9 11 1015.3 - 0.0 - - 10 - - - -
30/09:00pm 21.3 WSW 10 14 1015.2 - 0.0 - - 10 - - - -
30/08:30pm 21.5 WSW 11 15 1015.0 - 0.0 - - 10 - - - -
30/08:00pm 21.7 WSW 11 15 1014.7 - 0.0 - - 10 - - - -
30/07:30pm 21.9 WSW 11 14 1014.6 - 0.0 - - 10 - - - -
30/07:00pm 22.3 WSW 11 14 1014.2 - 0.0 - - 10 - - - -
30/06:30pm 23.1 W 12 15 1013.9 - 0.0 - - 10 - - - -
30/06:00pm 24.2 W 13 17 1013.5 - 0.0 - - 10 - - - -
30/05:30pm 25.7 W 13 16 1013.2 - 0.0 - - 10 - - - -
30/05:00pm 27.3 W 13 16 1012.8 - 0.0 - - 10 - - - -
30/04:30pm 28.8 W 12 16 1012.5 - 0.0 - - 10 - - - -
30/04:00pm 30.1 W 11 15 1012.3 - 0.0 - - 10 - - - -
30/03:30pm 30.5 W 12 15 1012.2 - 0.0 - - 10 - - - -
30/03:00pm 30.9 WNW 12 16 1012.1 R 0.0 Fine Clear 30 - - - -
30/02:30pm 29.8 NNE 8 11 1012.3 - 0.0 - - 10 - - - -
30/02:00pm 28.6 NNE 9 11 1012.6 - 0.0 - - 10 - - - -
30/01:30pm 27.8 NNE 11 13 1013.0 - 0.0 - - 10 - - - -
30/01:00pm 28.2 NNE 11 14 1013.2 - 0.0 - - 10 - - - -
30/12:30pm 28.0 NNE 11 13 1013.6 - 0.0 - - 10 - - - -
30/12:00pm 27.8 NE 10 13 1014.0 F 0.0 Fine Clear 30 - - - -
30/11:30am 26.5 ENE 10 13 1014.4 - 0.0 - - 10 - - - -
30/11:00am 26.5 E 8 10 1014.6 - 0.0 - - 10 - - - -
30/10:30am 26.7 SW 3 6 1014.9 - 0.0 - - 10 - - - -
30/10:00am 25.8 SSE 3 8 1015.2 - 0.0 - - 10 - - - -
30/09:30am 24.2 SW 5 7 1015.5 - 0.0 - - 10 - - - -
30/09:00am 23.4 SW 6 9 1015.6 F 0.0 Fine Clear 30 - - - -
30/08:30am 21.9 S 9 12 1015.5 - 0.0 - - 10 - - - -
30/08:00am 20.7 SSW 11 15 1015.4 - 0.0 - - 10 - - - -
30/07:30am 19.4 SSW 12 17 1015.4 - 0.0 - - 10 - - - -
30/07:00am 17.7 SSW 9 13 1015.1 - 0.0 - - 10 - - - -
30/06:30am 16.1 SSW 10 13 1014.9 - 0.0 - - 10 - - - -
30/06:00am 16.0 SSW 9 11 1014.7 S 0.0 Fine Clear 30 - - - -
30/05:30am 16.6 SSW 10 13 1014.7 - 0.0 - - 10 - - - -
30/05:00am 17.0 SSW 10 13 1014.6 - 0.0 - - 10 - - - -
30/04:30am 17.1 SW 10 14 1014.4 - 0.0 - - 10 - - - -
30/04:00am 17.2 SSW 11 13 1014.2 - 0.0 - - 10 - - - -
30/03:30am 17.4 SSW 11 15 1014.1 - 0.0 - - 10 - - - -
30/03:00am 18.0 SW 12 15 1014.0 - 0.0 - - 10 - - - -
30/02:30am 18.1 SSW 12 15 1014.2 - 0.0 - - 10 - - - -
30/02:00am 18.4 SSW 12 17 1014.4 - 0.0 - - 10 - - - -
30/01:30am 18.3 SW 11 16 1014.5 - 0.0 - - 10 - - - -
30/01:00am 18.4 SSW 12 15 1014.7 - 0.0 - - 10 - - - -
30/12:30am 18.6 SSW 11 15 1014.9 - 0.0 - - 10 - - - -
30/12:00am 18.5 SSW 11 15 1015.2 - 0.0 - - 10 - - - -
 
Date/Time
WST
Temp

°C
Wind Pressure Rain
since 9am
mm
Weather Cloud Vis
km
Sea
Height
m
Swell
Dir
 
Speed
knots
Gust
knots
hPa Trend Height
m
Period
s
Dir
29/11:30pm 19.0 SSW 12 15 1015.4 - 0.0 - - 10 - - - -
29/11:00pm 19.4 SSW 12 15 1015.6 - 0.0 - - 10 - - - -
29/10:30pm 19.5 SW 11 15 1015.9 - 0.0 - - 10 - - - -
29/10:00pm 19.7 SW 11 15 1016.1 - 0.0 - - 10 - - - -
29/09:30pm 19.9 SW 12 16 1016.3 - 0.0 - - 10 - - - -
29/09:00pm 20.0 SW 12 16 1016.3 - 0.0 - - 10 - - - -
29/08:30pm 20.3 SW 13 17 1016.0 - 0.0 - - 10 - - - -
29/08:00pm 20.4 SW 14 18 1015.9 - 0.0 - - 10 - - - -
29/07:30pm 20.8 SSW 14 19 1015.6 - 0.0 - - 10 - - - -
29/07:00pm 21.3 SSW 12 16 1015.4 - 0.0 - - 10 - - - -
29/06:30pm 22.4 SSW 14 18 1015.0 - 0.0 - - 10 - - - -
29/06:00pm 24.0 SSW 14 18 1014.6 - 0.0 - - 10 - - - -
29/05:30pm 26.3 SW 13 17 1014.1 - 0.0 - - 10 - - - -
29/05:00pm 27.4 WSW 12 14 1013.9 - 0.0 - - 10 - - - -
29/04:30pm 28.1 W 11 17 1013.8 - 0.0 - - 10 - - - -
29/04:00pm 28.5 W 11 16 1013.7 - 0.0 - - 10 - - - -
29/03:30pm 29.3 W 9 14 1013.6 - 0.0 - - 10 - - - -
29/03:00pm 27.9 E 6 10 1013.5 R 0.0 Fine Clear 30 - - - -
29/02:30pm 28.6 W 5 12 1013.8 - 0.0 - - 10 - - - -
29/02:00pm 27.6 E 7 11 1014.1 - 0.0 - - 10 - - - -
29/01:30pm 29.0 S 9 14 1014.4 - 0.0 - - 10 - - - -
29/01:00pm 29.6 W 8 13 1014.7 - 0.0 - - 10 - - - -
29/12:30pm 28.4 S 11 11 1015.2 - 0.0 - - 10 - - - -
29/12:00pm 27.5 WSW 10 15 1015.6 F 0.0 Fine Clear 30 - - - -
29/11:30am 26.7 S 8 15 1016.3 - 0.0 - - 10 - - - -
29/11:00am 25.9 SSW 8 12 1016.7 - 0.0 - - 10 - - - -
29/10:30am 25.4 SSW 9 16 1017.0 - 0.0 - - 10 - - - -
29/10:00am 24.1 SSW 11 15 1017.2 - 0.0 - - 10 - - - -
29/09:30am 22.9 SSW 12 16 1017.2 - 0.0 - - 10 - - - -
29/09:00am 22.2 SSW 10 13 1017.3 F 0.0 Smoke Clear 27 - - - -
29/08:30am 20.3 S 12 16 1017.4 - 0.0 - - 10 - - - -

Other Formats:

Comma delimited format used in spreadsheet applications
http://www.bom.gov.au/fwo/IDW60701/IDW60701.94302.axf

JavaScript Object Notation format (JSON) in row-major order
http://www.bom.gov.au/fwo/IDW60701/IDW60701.94302.json